Time;durP1;ratioP1;P1;durP2;ratioP2;P2;SDS_P1;SDS_P2;PMS_P1;PMS_P2;Temp;Humidity;BMP_temperature;BMP_pressure;BME280_temperature;BME280_humidity;BME280_pressure;Samples;Min_cycle;Max_cycle;Signal;HPM_P1;HPM_P2
2022/08/11 00:02:32;;;;;;;5.47;2.88;;;17.20;41.90;;;;;;5139841;27;20217;-86
2022/08/11 00:05:09;;;;;;;4.35;2.88;;;17.20;42.20;;;;;;5136367;27;20203;-86
2022/08/11 00:07:44;;;;;;;5.40;2.70;;;17.20;42.60;;;;;;5120892;27;20203;-86
2022/08/11 00:10:14;;;;;;;8.15;3.10;;;17.20;43.00;;;;;;5135259;27;20274;-86
2022/08/11 00:12:44;;;;;;;7.15;3.05;;;17.20;44.40;;;;;;5131357;27;20554;-86
2022/08/11 00:15:12;;;;;;;6.15;2.92;;;17.10;43.60;;;;;;5135100;27;20654;-86
2022/08/11 00:17:39;;;;;;;3.92;2.80;;;17.10;43.90;;;;;;5134797;27;20295;-86
2022/08/11 00:20:09;;;;;;;5.45;2.90;;;17.00;44.60;;;;;;5138984;27;20281;-85
2022/08/11 00:22:38;;;;;;;3.13;2.78;;;17.00;45.00;;;;;;5140798;27;20286;-86
2022/08/11 00:25:10;;;;;;;6.40;3.03;;;17.00;45.40;;;;;;5134753;27;20195;-86
2022/08/11 00:27:40;;;;;;;6.95;2.90;;;17.00;45.60;;;;;;5134098;27;20671;-86
2022/08/11 00:30:09;;;;;;;3.85;2.65;;;17.00;46.60;;;;;;5132929;27;20203;-86
2022/08/11 00:32:43;;;;;;;3.13;2.80;;;17.00;46.70;;;;;;5127947;27;20210;-86
2022/08/11 00:35:13;;;;;;;6.05;2.95;;;17.00;46.20;;;;;;5134778;27;20205;-86
2022/08/11 00:37:47;;;;;;;4.00;3.00;;;16.90;48.60;;;;;;5135325;27;20215;-86
2022/08/11 00:40:23;;;;;;;4.25;3.17;;;16.80;48.40;;;;;;5136266;27;20235;-86
2022/08/11 00:43:00;;;;;;;5.95;3.22;;;16.80;47.90;;;;;;5135798;27;20186;-86
2022/08/11 00:45:38;;;;;;;6.15;3.15;;;16.70;48.60;;;;;;5134364;27;20684;-86
2022/08/11 00:48:11;;;;;;;7.03;3.15;;;16.60;48.60;;;;;;5134362;27;20565;-86
2022/08/11 00:50:49;;;;;;;6.55;3.03;;;16.60;48.70;;;;;;5134356;27;20281;-86
2022/08/11 00:53:36;;;;;;;4.38;2.72;;;16.60;48.90;;;;;;5120056;28;20286;-86
2022/08/11 00:56:37;;;;;;;8.20;3.05;;;16.50;50.20;;;;;;5133998;27;20260;-86
2022/08/11 00:59:36;;;;;;;3.42;2.88;;;16.50;50.40;;;;;;5125432;28;20214;-86
2022/08/11 01:02:18;;;;;;;3.35;2.95;;;16.40;51.50;;;;;;5122372;27;20570;-86
2022/08/11 01:05:17;;;;;;;5.13;2.83;;;16.40;52.60;;;;;;5134732;27;20214;-86
2022/08/11 01:08:14;;;;;;;3.28;2.70;;;16.40;52.60;;;;;;5134292;27;20565;-86
2022/08/11 01:11:29;;;;;;;4.90;2.92;;;16.50;52.70;;;;;;5050568;28;20225;-86
2022/08/11 01:14:43;;;;;;;4.50;2.90;;;16.40;52.60;;;;;;5050176;28;20305;-86
2022/08/11 01:18:08;;;;;;;5.95;2.75;;;16.30;53.70;;;;;;5042989;28;20276;-87
2022/08/11 01:21:14;;;;;;;4.88;3.15;;;16.30;52.50;;;;;;5049713;28;20559;-86
2022/08/11 01:24:29;;;;;;;4.65;2.92;;;16.30;52.50;;;;;;5048620;28;20217;-86
2022/08/11 01:27:26;;;;;;;5.57;3.35;;;16.30;52.50;;;;;;4989394;28;20722;-86
2022/08/11 01:30:17;;;;;;;2.92;2.63;;;16.40;54.20;;;;;;4991086;28;20208;-86
2022/08/11 01:33:39;;;;;;;3.00;2.67;;;16.30;54.30;;;;;;4991029;28;20234;-86
2022/08/11 01:36:48;;;;;;;3.83;2.65;;;16.20;55.20;;;;;;4990539;28;20577;-86
2022/08/11 01:39:57;;;;;;;5.40;3.22;;;16.20;54.40;;;;;;4933504;28;20231;-86
2022/08/11 01:45:50;;;;;;;4.03;3.03;;;15.90;56.80;;;;;;4998480;28;20219;-85
2022/08/11 01:48:25;;;;;;;5.85;3.20;;;15.80;57.80;;;;;;5064645;28;20211;-86
2022/08/11 01:51:08;;;;;;;4.97;2.80;;;15.90;58.80;;;;;;5095813;28;20200;-86
2022/08/11 01:53:50;;;;;;;6.07;3.03;;;15.90;57.70;;;;;;5093322;28;20646;-86
2022/08/11 01:56:29;;;;;;;4.53;3.30;;;15.80;57.80;;;;;;5093030;28;20674;-86
2022/08/11 01:59:05;;;;;;;5.53;3.05;;;15.80;59.00;;;;;;5148512;27;20680;-86
2022/08/11 02:01:45;;;;;;;4.20;3.25;;;15.90;57.90;;;;;;5139920;27;20398;-86
2022/08/11 02:04:25;;;;;;;5.00;3.40;;;15.80;57.30;;;;;;5140287;27;20234;-86
2022/08/11 02:07:01;;;;;;;3.78;3.38;;;15.70;60.40;;;;;;5124226;27;20210;-86
2022/08/11 02:09:53;;;;;;;3.53;3.03;;;15.70;58.80;;;;;;5135125;27;20561;-86
2022/08/11 02:12:38;;;;;;;4.20;3.45;;;15.80;58.20;;;;;;5149144;27;20290;-85
2022/08/11 02:15:13;;;;;;;6.10;3.00;;;15.80;57.40;;;;;;5140178;27;20212;-85
2022/08/11 02:17:50;;;;;;;4.55;3.15;;;15.70;56.90;;;;;;5138929;27;20232;-86
2022/08/11 02:23:39;;;;;;;4.45;3.15;;;15.70;57.30;;;;;;5143085;27;20297;-86
2022/08/11 02:26:14;;;;;;;7.80;3.33;;;15.70;57.70;;;;;;5115798;28;20215;-86
2022/08/11 02:28:51;;;;;;;6.82;3.70;;;15.70;58.10;;;;;;5128911;27;20198;-86
2022/08/11 02:34:14;;;;;;;4.45;3.20;;;15.80;57.60;;;;;;5121493;27;20560;-86
2022/08/11 02:36:49;;;;;;;4.75;3.38;;;15.80;57.60;;;;;;5123375;27;20673;-86
2022/08/11 02:39:20;;;;;;;4.00;3.33;;;15.80;57.60;;;;;;5134561;27;20225;-86
2022/08/11 02:44:51;;;;;;;6.38;3.45;;;15.70;58.40;;;;;;5140700;27;20228;-86
2022/08/11 02:47:32;;;;;;;4.18;3.20;;;15.80;59.20;;;;;;5150728;27;20289;-86
2022/08/11 02:50:04;;;;;;;4.38;3.15;;;15.80;58.50;;;;;;5150719;27;20222;-86
2022/08/11 02:52:48;;;;;;;5.78;3.45;;;15.80;59.80;;;;;;5148593;27;20657;-86
2022/08/11 02:55:23;;;;;;;4.22;3.38;;;15.60;59.90;;;;;;5130658;27;20566;-86
2022/08/11 02:57:58;;;;;;;3.90;3.42;;;15.50;60.20;;;;;;5143165;27;20664;-86
2022/08/11 03:00:26;;;;;;;3.42;3.13;;;15.50;61.00;;;;;;5145270;27;20575;-86
2022/08/11 03:03:05;;;;;;;5.95;3.40;;;15.50;63.00;;;;;;5138139;27;20200;-86
2022/08/11 03:05:41;;;;;;;4.57;3.67;;;15.50;60.80;;;;;;5148919;27;20222;-86
2022/08/11 03:08:18;;;;;;;5.88;3.20;;;15.40;61.70;;;;;;5137946;27;20205;-86
2022/08/11 03:16:47;;;;;;;4.25;3.47;;;15.40;63.30;;;;;;5132374;27;20713;-86
2022/08/11 03:19:24;;;;;;;4.00;3.60;;;15.40;65.50;;;;;;5126309;27;20215;-86
2022/08/11 03:22:01;;;;;;;4.68;4.03;;;15.40;66.10;;;;;;5135234;27;20199;-86
2022/08/11 03:24:36;;;;;;;6.90;3.47;;;15.30;65.40;;;;;;5145416;27;20220;-86
2022/08/11 03:27:10;;;;;;;6.05;3.50;;;15.20;66.60;;;;;;5149036;27;20208;-86
2022/08/11 03:29:47;;;;;;;3.85;3.45;;;15.00;68.30;;;;;;5152287;27;20657;-86
2022/08/11 03:32:25;;;;;;;3.63;3.30;;;15.00;70.70;;;;;;5149791;27;20205;-86
2022/08/11 03:34:53;;;;;;;4.80;3.35;;;15.00;70.20;;;;;;5152995;27;20204;-86
2022/08/11 03:37:51;;;;;;;8.77;3.92;;;15.00;70.20;;;;;;5150031;27;20194;-86
2022/08/11 03:43:52;;;;;;;8.70;4.50;;;14.90;70.60;;;;;;5149169;27;20252;-86
2022/08/11 03:46:37;;;;;;;4.60;3.70;;;14.80;72.80;;;;;;5127193;27;20237;-86
2022/08/11 03:49:20;;;;;;;6.15;3.78;;;14.70;74.90;;;;;;5143874;27;20210;-86
2022/08/11 03:51:53;;;;;;;5.75;3.95;;;14.50;75.00;;;;;;5136359;27;20195;-86
2022/08/11 03:54:29;;;;;;;4.85;4.28;;;14.40;76.80;;;;;;5143325;27;20207;-86
2022/08/11 03:57:37;;;;;;;4.10;3.67;;;14.40;76.80;;;;;;5147549;27;20198;-86
2022/08/11 04:00:16;;;;;;;4.78;4.07;;;14.40;76.80;;;;;;5079224;28;20226;-86
2022/08/11 04:03:12;;;;;;;8.85;4.30;;;14.40;76.80;;;;;;5077510;28;20262;-86
2022/08/11 04:06:18;;;;;;;4.35;3.95;;;14.30;78.60;;;;;;5071066;28;20209;-86
2022/08/11 04:09:35;;;;;;;5.30;4.15;;;14.30;77.90;;;;;;5010921;28;20265;-85
2022/08/11 04:12:39;;;;;;;7.50;4.10;;;14.30;78.70;;;;;;4954522;29;20228;-86
2022/08/11 04:18:43;;;;;;;4.40;3.83;;;14.40;78.10;;;;;;4958937;29;20240;-85
2022/08/11 04:21:51;;;;;;;4.75;4.25;;;14.40;78.20;;;;;;4967825;28;20209;-85
2022/08/11 04:24:35;;;;;;;5.78;4.20;;;14.40;78.90;;;;;;4898707;29;20211;-86
2022/08/11 04:27:26;;;;;;;5.60;4.15;;;14.40;78.10;;;;;;4895416;29;20212;-86
2022/08/11 04:30:29;;;;;;;4.65;4.22;;;14.40;78.10;;;;;;4894509;29;20702;-86
2022/08/11 04:33:33;;;;;;;5.60;4.47;;;14.60;78.90;;;;;;4894486;29;20211;-86
2022/08/11 04:36:12;;;;;;;5.95;4.05;;;14.70;78.10;;;;;;4879422;29;20244;-86
2022/08/11 04:39:08;;;;;;;7.30;4.53;;;14.70;78.20;;;;;;4913340;29;20705;-86
2022/08/11 04:45:20;;;;;;;6.72;4.50;;;14.80;77.10;;;;;;4919064;28;20270;-86
2022/08/11 05:03:30;;;;;;;6.53;4.30;;;14.90;77.20;;;;;;5008938;28;20584;-86
2022/08/11 05:06:39;;;;;;;5.97;4.30;;;15.10;77.40;;;;;;5009632;28;20199;-86
2022/08/11 05:09:37;;;;;;;6.65;4.55;;;15.10;75.80;;;;;;4951814;29;20212;-86
2022/08/11 05:12:22;;;;;;;8.52;4.40;;;15.10;75.20;;;;;;4951909;28;20574;-86
2022/08/11 05:34:51;;;;;;;4.50;3.60;;;15.80;71.20;;;;;;5024710;28;20212;-86
2022/08/11 05:37:23;;;;;;;7.43;4.40;;;15.90;68.40;;;;;;5022975;28;20206;-86
2022/08/11 05:56:43;;;;;;;7.25;4.35;;;16.50;59.90;;;;;;5058433;28;20629;-86
2022/08/11 05:59:16;;;;;;;5.93;4.25;;;16.60;57.60;;;;;;5065920;28;20217;-86
2022/08/11 06:01:44;;;;;;;11.38;4.10;;;16.60;56.80;;;;;;5103295;27;20204;-85
2022/08/11 06:04:18;;;;;;;4.38;3.97;;;16.70;56.60;;;;;;5155622;27;20194;-85
2022/08/11 06:06:58;;;;;;;4.78;4.30;;;16.80;55.70;;;;;;5144908;27;20229;-86
2022/08/11 06:09:28;;;;;;;6.75;4.28;;;16.80;56.30;;;;;;5131975;27;20199;-86
2022/08/11 06:11:58;;;;;;;5.95;4.20;;;16.80;55.00;;;;;;5132189;27;20203;-86
2022/08/11 06:14:33;;;;;;;4.15;3.70;;;16.90;55.70;;;;;;5130597;27;20203;-86
2022/08/11 06:17:04;;;;;;;6.00;3.92;;;16.90;54.60;;;;;;5140627;27;20206;-86
2022/08/11 06:19:36;;;;;;;6.72;4.22;;;17.10;54.50;;;;;;5154999;27;20222;-86
2022/08/11 06:22:05;;;;;;;4.95;4.20;;;17.20;53.30;;;;;;5146717;27;20203;-86
2022/08/11 06:24:33;;;;;;;7.72;4.05;;;17.30;53.40;;;;;;5123840;27;20202;-86
2022/08/11 06:27:03;;;;;;;4.68;4.00;;;17.30;55.10;;;;;;5135709;27;20203;-86
2022/08/11 06:29:33;;;;;;;5.25;4.00;;;17.30;54.60;;;;;;5136753;27;20199;-86
2022/08/11 06:32:02;;;;;;;6.38;3.72;;;17.40;53.50;;;;;;5137437;27;20195;-86
2022/08/11 06:34:40;;;;;;;12.80;4.15;;;17.60;53.70;;;;;;5138326;27;20205;-86
2022/08/11 06:37:19;;;;;;;4.85;3.92;;;17.70;54.90;;;;;;5132920;27;20611;-86
2022/08/11 06:39:52;;;;;;;4.35;3.70;;;17.80;53.90;;;;;;5118574;27;20218;-86
2022/08/11 06:42:36;;;;;;;6.82;4.10;;;17.80;53.70;;;;;;5122609;27;20286;-86
2022/08/11 06:45:16;;;;;;;6.05;3.78;;;17.80;51.80;;;;;;5137806;27;20222;-86
2022/08/11 06:47:46;;;;;;;3.67;3.28;;;18.00;46.70;;;;;;5123940;27;20642;-86
2022/08/11 06:53:09;;;;;;;6.35;3.58;;;18.30;46.90;;;;;;5126793;27;20616;-86
2022/08/11 07:01:15;;;;;;;6.72;4.03;;;18.70;41.40;;;;;;5123459;27;20239;-86
2022/08/11 07:03:46;;;;;;;6.22;3.88;;;18.80;40.90;;;;;;5136313;27;20203;-86
2022/08/11 07:06:44;;;;;;;5.53;3.60;;;18.80;40.90;;;;;;5130573;27;20196;-86
2022/08/11 07:15:43;;;;;;;4.18;3.53;;;18.90;39.30;;;;;;5080526;28;20211;-86
2022/08/11 07:29:49;;;;;;;5.72;3.58;;;19.40;35.90;;;;;;5086542;28;20215;-86
2022/08/11 07:32:24;;;;;;;6.70;3.55;;;19.50;35.30;;;;;;5091377;28;20250;-86
2022/08/11 07:35:02;;;;;;;4.63;3.50;;;19.60;34.50;;;;;;5091475;28;20200;-86
2022/08/11 07:37:32;;;;;;;6.38;3.67;;;19.60;35.00;;;;;;5091261;28;20200;-86
2022/08/11 07:39:59;;;;;;;5.00;3.53;;;19.60;33.40;;;;;;5091218;28;20273;-86
2022/08/11 07:42:34;;;;;;;5.15;3.50;;;19.60;35.40;;;;;;5091166;28;20215;-86
2022/08/11 07:53:24;;;;;;;4.35;3.42;;;19.90;34.20;;;;;;5115630;27;20206;-86
2022/08/11 07:55:54;;;;;;;4.00;3.17;;;20.00;33.20;;;;;;5133868;27;20194;-86
2022/08/11 08:18:13;;;;;;;3.92;3.45;;;20.90;31.60;;;;;;5125609;27;20681;-86
2022/08/11 08:20:45;;;;;;;4.22;3.33;;;21.00;30.70;;;;;;5134624;27;20589;-86
2022/08/11 08:23:14;;;;;;;4.97;3.25;;;21.10;32.10;;;;;;5142109;27;20661;-86
2022/08/11 08:25:43;;;;;;;5.15;3.63;;;21.20;30.60;;;;;;5145798;27;20202;-86
2022/08/11 08:28:14;;;;;;;4.80;3.28;;;21.30;29.50;;;;;;5145882;27;20212;-86
2022/08/11 08:30:49;;;;;;;4.65;3.55;;;21.40;28.80;;;;;;5132179;27;20207;-87
2022/08/11 08:33:20;;;;;;;6.97;3.78;;;21.50;30.30;;;;;;5133916;27;20637;-86
2022/08/11 08:35:49;;;;;;;6.10;3.33;;;21.70;28.20;;;;;;5130440;27;20730;-87
2022/08/11 08:38:19;;;;;;;3.72;3.03;;;21.70;29.00;;;;;;5140359;27;20214;-84
2022/08/11 08:40:52;;;;;;;4.65;3.40;;;21.70;29.80;;;;;;5132355;27;20610;-84
2022/08/11 08:43:19;;;;;;;8.00;3.30;;;21.70;29.30;;;;;;5139840;27;20198;-84
2022/08/11 08:45:46;;;;;;;10.27;3.28;;;21.80;28.90;;;;;;5131857;27;20609;-84
2022/08/11 08:48:16;;;;;;;5.53;3.20;;;22.00;29.30;;;;;;5134548;27;20206;-84
2022/08/11 08:53:53;;;;;;;4.35;2.80;;;22.30;25.40;;;;;;5131049;27;20284;-84
2022/08/11 08:56:26;;;;;;;4.80;2.90;;;22.50;25.70;;;;;;5136102;27;20202;-84
2022/08/11 08:58:53;;;;;;;6.22;2.90;;;22.60;24.10;;;;;;5134906;27;20282;-84
2022/08/11 09:01:27;;;;;;;4.28;3.13;;;22.80;24.80;;;;;;5119394;27;20214;-84
2022/08/11 09:03:54;;;;;;;3.40;3.10;;;23.20;23.80;;;;;;5135908;27;20524;-84
2022/08/11 09:06:31;;;;;;;4.20;2.92;;;23.70;21.50;;;;;;5120855;27;20558;-84
2022/08/11 09:09:00;;;;;;;3.47;3.17;;;24.10;20.60;;;;;;5115499;28;20206;-84
2022/08/11 09:14:12;;;;;;;5.32;3.15;;;25.80;18.30;;;;;;5127677;27;20206;-85
2022/08/11 09:16:39;;;;;;;4.10;2.83;;;26.50;15.80;;;;;;5138045;27;20202;-85
2022/08/11 09:19:08;;;;;;;4.53;3.55;;;28.10;14.30;;;;;;5152361;27;20206;-83
2022/08/11 09:21:38;;;;;;;6.53;3.30;;;28.90;12.10;;;;;;5149265;27;20206;-83
2022/08/11 09:26:59;;;;;;;7.15;3.70;;;31.10;8.40;;;;;;5135634;27;20205;-86
2022/08/11 09:29:32;;;;;;;6.22;3.50;;;32.00;7.60;;;;;;5142633;27;20237;-86
2022/08/11 09:32:00;;;;;;;6.80;3.67;;;33.10;5.50;;;;;;5146714;27;20195;-86
2022/08/11 09:34:27;;;;;;;6.07;3.13;;;32.90;5.70;;;;;;5149417;27;20669;-86
2022/08/11 09:45:12;;;;;;;8.15;3.70;;;33.70;4.50;;;;;;5147240;27;20221;-85
2022/08/11 09:47:42;;;;;;;4.72;3.30;;;33.20;4.80;;;;;;5143407;27;20202;-86
2022/08/11 09:50:15;;;;;;;3.92;3.53;;;32.60;5.90;;;;;;5135532;27;20203;-84
2022/08/11 09:52:46;;;;;;;4.85;3.75;;;32.80;4.50;;;;;;5125913;27;20240;-84
2022/08/11 09:55:16;;;;;;;4.25;3.42;;;32.70;4.90;;;;;;5121330;27;20229;-84
2022/08/11 09:58:16;;;;;;;7.05;3.45;;;32.30;5.70;;;;;;5133393;28;20554;-84
2022/08/11 10:00:45;;;;;;;5.10;3.75;;;31.70;6.90;;;;;;5133672;27;20577;-86
2022/08/11 10:03:15;;;;;;;4.82;3.50;;;31.70;6.20;;;;;;5134311;27;20206;-86
2022/08/11 10:08:54;;;;;;;4.97;3.58;;;32.20;6.00;;;;;;5139494;27;20271;-84
2022/08/11 10:11:24;;;;;;;3.85;3.45;;;33.50;3.60;;;;;;5137009;27;20201;-86
2022/08/11 10:16:42;;;;;;;3.70;3.40;;;33.40;4.40;;;;;;5134862;27;20287;-84
2022/08/11 10:19:10;;;;;;;6.75;3.40;;;33.50;4.60;;;;;;5131394;27;20209;-84
2022/08/11 10:21:41;;;;;;;4.80;3.30;;;33.60;3.90;;;;;;5141119;27;20227;-84
2022/08/11 10:27:14;;;;;;;5.03;3.40;;;33.70;3.00;;;;;;5073321;28;20201;-86
2022/08/11 10:35:15;;;;;;;5.88;3.58;;;31.80;7.00;;;;;;5071640;28;20271;-86
2022/08/11 10:37:45;;;;;;;5.50;3.30;;;32.30;5.40;;;;;;5064774;28;20205;-84
2022/08/11 10:40:15;;;;;;;4.90;3.20;;;31.60;6.30;;;;;;5075630;28;20221;-86
2022/08/11 10:43:05;;;;;;;5.38;3.78;;;31.90;6.60;;;;;;5075332;28;20555;-86
2022/08/11 10:48:20;;;;;;;6.38;3.20;;;32.30;5.70;;;;;;5013733;28;20289;-85
2022/08/11 10:51:13;;;;;;;4.47;3.35;;;33.10;4.50;;;;;;5000110;28;20199;-85
2022/08/11 10:59:16;;;;;;;3.75;3.45;;;32.30;5.70;;;;;;5089186;28;20277;-85
2022/08/11 11:01:49;;;;;;;6.30;3.30;;;31.60;8.50;;;;;;5082357;28;20229;-85
2022/08/11 11:04:28;;;;;;;7.63;4.20;;;31.30;7.20;;;;;;5090764;28;20200;-85
2022/08/11 11:07:02;;;;;;;4.22;3.10;;;31.00;7.50;;;;;;5097454;28;20264;-85
2022/08/11 11:09:32;;;;;;;5.15;3.20;;;31.20;7.60;;;;;;5099206;28;20197;-85
2022/08/11 11:17:56;;;;;;;3.33;3.00;;;30.20;8.40;;;;;;5092451;28;20219;-84
2022/08/11 11:20:25;;;;;;;3.42;2.83;;;29.70;8.70;;;;;;5091129;28;20223;-84
2022/08/11 11:23:01;;;;;;;3.67;2.78;;;29.20;11.30;;;;;;5094599;28;20211;-84
2022/08/11 11:25:40;;;;;;;5.55;2.95;;;28.90;10.50;;;;;;5110235;27;20585;-84
2022/08/11 11:28:30;;;;;;;4.13;3.00;;;28.70;11.40;;;;;;5137526;27;20191;-84
2022/08/11 11:31:10;;;;;;;6.53;2.80;;;28.40;11.50;;;;;;5126061;27;20209;-84
2022/08/11 11:34:04;;;;;;;2.92;2.63;;;28.30;13.60;;;;;;5142189;27;20225;-81
2022/08/11 11:36:44;;;;;;;2.80;2.60;;;28.30;11.10;;;;;;5144062;27;20209;-81
2022/08/11 11:39:11;;;;;;;4.07;2.60;;;28.30;10.80;;;;;;5141016;27;20679;-81
2022/08/11 11:41:38;;;;;;;2.95;2.63;;;28.20;10.80;;;;;;5141766;27;20561;-81
2022/08/11 11:44:07;;;;;;;3.38;2.50;;;28.00;10.90;;;;;;5137350;27;20215;-81
2022/08/11 11:46:35;;;;;;;4.80;2.63;;;27.90;11.00;;;;;;5131345;27;20668;-81
2022/08/11 11:49:06;;;;;;;5.82;2.60;;;27.90;11.60;;;;;;5136793;27;20657;-81
2022/08/11 11:51:33;;;;;;;6.80;2.50;;;28.00;11.60;;;;;;5136402;27;20210;-81
2022/08/11 11:54:02;;;;;;;7.18;2.75;;;27.80;12.50;;;;;;5135857;27;20206;-81
2022/08/11 11:56:29;;;;;;;3.67;2.53;;;27.80;10.90;;;;;;5136187;27;20202;-81
2022/08/11 12:01:44;;;;;;;2.72;2.38;;;27.80;11.80;;;;;;5130079;27;20581;-81
2022/08/11 12:04:15;;;;;;;4.03;2.45;;;27.50;12.10;;;;;;5139018;27;20210;-81
2022/08/11 12:06:42;;;;;;;3.53;2.75;;;27.60;11.70;;;;;;5139876;27;20195;-81
2022/08/11 12:09:13;;;;;;;3.88;2.58;;;27.50;13.70;;;;;;5155883;27;20199;-81
2022/08/11 12:14:27;;;;;;;2.67;2.47;;;27.50;11.30;;;;;;5132543;27;20206;-81
2022/08/11 12:16:57;;;;;;;6.68;2.67;;;27.50;12.00;;;;;;5134051;27;20195;-81
2022/08/11 12:19:27;;;;;;;4.55;2.40;;;27.50;13.10;;;;;;5147741;27;20209;-81
2022/08/11 12:27:41;;;;;;;4.32;2.33;;;27.70;12.30;;;;;;5070897;28;20260;-82
2022/08/11 12:30:09;;;;;;;2.50;2.30;;;27.70;12.30;;;;;;5074613;28;20216;-82
2022/08/11 12:32:39;;;;;;;4.85;2.88;;;27.80;10.90;;;;;;5083753;28;20200;-82
2022/08/11 12:35:07;;;;;;;2.85;2.53;;;27.80;11.40;;;;;;5081731;28;20204;-82
2022/08/11 12:37:37;;;;;;;5.32;2.38;;;27.70;10.40;;;;;;5091131;28;20207;-82
2022/08/11 12:45:57;;;;;;;3.33;2.60;;;27.60;10.80;;;;;;5083588;28;20236;-81
2022/08/11 12:54:15;;;;;;;2.50;2.30;;;27.60;12.10;;;;;;5078851;28;20223;-82
2022/08/11 13:05:05;;;;;;;3.65;2.10;;;27.50;10.90;;;;;;5146378;27;20205;-81
2022/08/11 13:07:33;;;;;;;3.67;2.15;;;27.60;11.10;;;;;;5143598;27;20196;-82
2022/08/11 13:10:03;;;;;;;3.83;2.40;;;27.60;11.20;;;;;;5137360;27;20202;-82
2022/08/11 13:12:49;;;;;;;5.38;2.47;;;27.90;10.10;;;;;;5139489;27;20231;-82
2022/08/11 13:15:24;;;;;;;5.18;2.20;;;27.70;10.20;;;;;;5136319;27;20289;-82
2022/08/11 13:18:01;;;;;;;5.22;2.53;;;27.80;11.40;;;;;;5150395;27;20206;-82
2022/08/11 13:20:32;;;;;;;6.50;2.47;;;28.00;10.80;;;;;;5155871;27;20308;-83
2022/08/11 13:23:00;;;;;;;4.93;2.53;;;27.90;10.00;;;;;;5155649;27;20659;-83
2022/08/11 13:25:39;;;;;;;2.20;2.00;;;27.80;11.70;;;;;;5149557;27;20212;-83
2022/08/11 13:28:12;;;;;;;5.25;2.42;;;27.80;10.60;;;;;;5155673;27;20202;-84
2022/08/11 13:31:13;;;;;;;4.03;2.17;;;27.70;11.40;;;;;;5151026;27;20202;-85
2022/08/11 13:33:45;;;;;;;2.70;2.13;;;27.70;10.80;;;;;;5134877;27;20194;-82
2022/08/11 13:36:18;;;;;;;3.65;2.15;;;27.80;10.30;;;;;;5152972;27;20205;-83
2022/08/11 13:38:45;;;;;;;3.72;2.38;;;27.80;9.60;;;;;;5150595;27;20198;-83
2022/08/11 13:43:57;;;;;;;3.00;2.17;;;27.60;10.30;;;;;;5141318;27;20229;-83
2022/08/11 13:46:27;;;;;;;3.95;2.35;;;27.80;10.10;;;;;;5142305;27;20199;-83
2022/08/11 13:48:57;;;;;;;4.15;2.30;;;27.80;9.90;;;;;;5141694;27;20669;-83
2022/08/11 13:51:33;;;;;;;2.90;2.28;;;27.80;10.00;;;;;;5141305;27;20672;-83
2022/08/11 13:54:03;;;;;;;4.38;2.30;;;27.80;9.90;;;;;;5128145;27;20341;-84
2022/08/11 13:56:31;;;;;;;6.32;2.35;;;27.80;9.70;;;;;;5139176;27;20202;-84
2022/08/11 13:59:03;;;;;;;3.50;2.40;;;27.70;10.10;;;;;;5141496;27;20205;-82
2022/08/11 14:01:33;;;;;;;3.33;2.28;;;27.50;10.00;;;;;;5142308;27;20226;-82
2022/08/11 14:04:05;;;;;;;3.30;2.10;;;27.40;9.80;;;;;;5140475;27;20206;-81
2022/08/11 14:06:41;;;;;;;2.67;2.17;;;27.40;10.60;;;;;;5140663;27;20564;-82
2022/08/11 14:09:09;;;;;;;4.50;2.20;;;27.40;10.40;;;;;;5139615;27;20198;-81
2022/08/11 14:14:25;;;;;;;2.17;2.03;;;27.60;9.70;;;;;;5122596;27;20211;-82
2022/08/11 14:16:56;;;;;;;3.80;2.08;;;27.40;10.60;;;;;;5137074;27;20199;-82
2022/08/11 14:19:26;;;;;;;3.45;2.40;;;27.40;10.40;;;;;;5149920;27;20425;-82
2022/08/11 14:22:08;;;;;;;5.30;2.40;;;27.20;11.10;;;;;;5137614;27;20217;-82
2022/08/11 14:24:40;;;;;;;4.15;2.20;;;27.20;10.70;;;;;;5143409;27;20680;-82
2022/08/11 14:27:10;;;;;;;4.55;2.47;;;27.20;11.10;;;;;;5142130;27;20291;-82
2022/08/11 14:29:40;;;;;;;4.18;2.30;;;27.00;11.40;;;;;;5140953;27;20223;-83
2022/08/11 14:32:10;;;;;;;3.05;2.20;;;27.00;11.00;;;;;;5136608;27;20204;-81
2022/08/11 14:34:41;;;;;;;5.93;2.25;;;26.90;10.60;;;;;;5131936;27;20210;-83
2022/08/11 14:37:11;;;;;;;3.65;2.17;;;26.90;11.00;;;;;;5137666;27;20273;-81
2022/08/11 14:39:43;;;;;;;2.38;2.17;;;27.00;10.80;;;;;;5129394;27;20199;-81
2022/08/11 14:48:09;;;;;;;6.05;4.70;;;27.10;10.40;;;;;;5127000;27;20199;-82
2022/08/11 14:50:36;;;;;;;6.60;2.50;;;27.10;11.40;;;;;;5133300;27;20191;-82
2022/08/11 14:53:07;;;;;;;6.93;6.32;;;26.90;10.90;;;;;;5125609;27;20199;-82
2022/08/11 14:58:26;;;;;;;4.07;2.38;;;26.80;10.30;;;;;;5136550;27;20698;-82
2022/08/11 15:00:57;;;;;;;2.45;1.92;;;26.80;10.50;;;;;;5121812;27;20214;-82
2022/08/11 15:03:24;;;;;;;6.05;5.43;;;26.80;10.50;;;;;;5137977;27;20581;-82
2022/08/11 15:05:55;;;;;;;3.42;2.20;;;26.80;10.50;;;;;;5137129;27;20232;-82
2022/08/11 15:08:53;;;;;;;3.63;2.30;;;26.80;10.20;;;;;;5137551;27;20373;-82
2022/08/11 15:13:55;;;;;;;3.58;2.00;;;26.90;10.60;;;;;;5127474;27;20227;-82
2022/08/11 15:19:10;;;;;;;3.53;2.30;;;27.10;10.80;;;;;;5123008;27;20248;-82
2022/08/11 15:24:23;;;;;;;6.05;2.20;;;27.10;10.10;;;;;;5147818;27;20352;-82
2022/08/11 15:37:58;;;;;;;4.38;2.25;;;27.00;8.90;;;;;;5136174;27;20260;-81
2022/08/11 15:46:17;;;;;;;4.28;2.33;;;26.60;10.30;;;;;;5140590;27;20214;-81
2022/08/11 15:48:48;;;;;;;5.15;2.15;;;26.40;10.70;;;;;;5140642;27;20202;-81
2022/08/11 15:51:21;;;;;;;4.07;2.30;;;26.30;10.30;;;;;;5141591;27;20211;-81
2022/08/11 15:53:52;;;;;;;5.43;2.20;;;26.20;10.10;;;;;;5138184;27;20210;-81
2022/08/11 15:56:22;;;;;;;2.53;2.20;;;26.00;11.00;;;;;;5135817;27;20209;-81
2022/08/11 16:04:36;;;;;;;3.70;2.10;;;25.60;11.20;;;;;;5093423;28;20197;-82
2022/08/11 16:07:10;;;;;;;3.78;2.08;;;25.50;11.30;;;;;;5091017;28;20586;-83
2022/08/11 16:09:43;;;;;;;2.03;1.90;;;25.60;12.30;;;;;;5083868;28;20407;-82
2022/08/11 16:12:25;;;;;;;3.80;2.00;;;25.70;10.20;;;;;;5092805;28;20200;-85
2022/08/11 16:17:44;;;;;;;4.95;2.00;;;25.70;10.60;;;;;;5098436;28;20207;-82
2022/08/11 16:20:14;;;;;;;4.22;2.35;;;25.60;10.30;;;;;;5095130;28;20200;-85
2022/08/11 16:22:46;;;;;;;4.35;2.10;;;25.50;10.70;;;;;;5090881;28;20234;-85
2022/08/11 16:25:17;;;;;;;2.95;1.90;;;25.40;10.90;;;;;;5091267;28;20204;-85
2022/08/11 16:27:52;;;;;;;4.35;2.15;;;25.50;10.70;;;;;;5091556;28;20212;-85
2022/08/11 16:30:19;;;;;;;2.35;2.00;;;25.50;10.80;;;;;;5087681;28;20204;-85
2022/08/11 16:32:51;;;;;;;3.10;2.10;;;25.40;10.70;;;;;;5090692;28;20205;-86
2022/08/11 16:40:55;;;;;;;5.15;2.20;;;25.20;11.40;;;;;;5135229;27;20210;-84
2022/08/11 16:49:01;;;;;;;2.95;2.13;;;25.20;11.50;;;;;;5058604;28;20623;-85
2022/08/11 16:51:29;;;;;;;2.42;2.13;;;25.10;11.80;;;;;;5071318;28;20207;-85
2022/08/11 16:53:56;;;;;;;5.43;2.20;;;25.00;12.40;;;;;;5055763;28;20633;-85
2022/08/11 16:56:29;;;;;;;4.93;2.33;;;24.90;12.40;;;;;;5060311;28;20564;-85
2022/08/11 16:59:13;;;;;;;3.08;2.25;;;24.90;12.60;;;;;;5056864;28;20201;-85
2022/08/11 17:01:41;;;;;;;1.83;1.73;;;24.80;13.30;;;;;;5070957;28;20223;-85
2022/08/11 17:13:09;;;;;;;3.63;2.28;;;24.50;13.90;;;;;;5074649;28;20231;-84
2022/08/11 17:18:41;;;;;;;3.70;2.28;;;24.40;13.80;;;;;;5065227;28;20208;-85
2022/08/11 17:21:12;;;;;;;4.35;2.25;;;24.40;13.80;;;;;;5066405;28;20201;-84
2022/08/11 17:23:49;;;;;;;2.33;2.10;;;24.40;13.80;;;;;;5072534;28;20201;-84
2022/08/11 17:26:24;;;;;;;2.55;2.35;;;24.30;13.70;;;;;;5106897;27;20721;-84
2022/08/11 17:28:56;;;;;;;2.67;2.20;;;24.20;13.70;;;;;;5122788;27;20584;-84
2022/08/11 17:37:10;;;;;;;3.20;2.33;;;24.10;13.60;;;;;;5132199;27;20210;-85
2022/08/11 17:39:38;;;;;;;7.07;2.10;;;24.00;13.50;;;;;;5140300;27;20199;-85
2022/08/11 17:50:23;;;;;;;1.98;1.80;;;23.90;13.50;;;;;;5129103;27;20257;-85
2022/08/11 18:01:38;;;;;;;2.45;1.90;;;23.70;13.30;;;;;;5134191;27;20202;-85
2022/08/11 18:04:08;;;;;;;2.22;2.03;;;23.50;13.20;;;;;;5141155;27;20584;-84
2022/08/11 18:06:49;;;;;;;3.30;1.90;;;23.50;13.20;;;;;;5131049;27;20699;-85
